Time;durP1;ratioP1;P1;durP2;ratioP2;P2;SDS_P1;SDS_P2;PMS_P1;PMS_P2;Temp;Humidity;BMP_temperature;BMP_pressure;BME280_temperature;BME280_humidity;BME280_pressure;Samples;Min_cycle;Max_cycle;Signal;HPM_P1;HPM_P2
2022/02/24 00:01:14;;;;;;;5.53;3.10;;;;;;;;;;5013127;28;20511;-45
2022/02/24 00:03:40;;;;;;;5.83;2.90;;;;;;;;;;5013179;28;20406;-45
2022/02/24 00:06:06;;;;;;;3.47;3.10;;;;;;;;;;5013084;28;20410;-45
2022/02/24 00:08:32;;;;;;;3.90;2.90;;;;;;;;;;5013626;28;20413;-45
2022/02/24 00:10:58;;;;;;;13.13;3.23;;;;;;;;;;5013090;28;20421;-45
2022/02/24 00:13:24;;;;;;;7.20;3.63;;;;;;;;;;5013071;28;20426;-44
2022/02/24 00:15:50;;;;;;;4.13;3.10;;;;;;;;;;5013180;28;20486;-44
2022/02/24 00:18:16;;;;;;;2.80;2.40;;;;;;;;;;5013122;28;20517;-45
2022/02/24 00:20:42;;;;;;;7.23;3.33;;;;;;;;;;5012206;28;20595;-45
2022/02/24 00:23:08;;;;;;;5.63;2.73;;;;;;;;;;5013029;28;20414;-45
2022/02/24 00:25:34;;;;;;;6.00;2.53;;;;;;;;;;5013030;28;20984;-45
2022/02/24 00:28:00;;;;;;;10.67;3.40;;;;;;;;;;5012927;28;20426;-45
2022/02/24 00:30:26;;;;;;;5.53;2.63;;;;;;;;;;5012497;28;20507;-45
2022/02/24 00:32:52;;;;;;;6.70;3.13;;;;;;;;;;5012798;28;20409;-45
2022/02/24 00:35:18;;;;;;;9.97;3.13;;;;;;;;;;5012584;28;20413;-44
2022/02/24 00:37:44;;;;;;;4.63;2.80;;;;;;;;;;5012567;28;20429;-45
2022/02/24 00:40:10;;;;;;;5.90;3.80;;;;;;;;;;5012338;28;20465;-45
2022/02/24 00:42:36;;;;;;;6.70;3.23;;;;;;;;;;5012516;28;20406;-45
2022/02/24 00:45:02;;;;;;;9.73;3.23;;;;;;;;;;5012539;28;20891;-45
2022/02/24 00:47:28;;;;;;;14.57;3.30;;;;;;;;;;5012327;28;20946;-45
2022/02/24 00:49:54;;;;;;;5.30;3.17;;;;;;;;;;5012104;28;20413;-45
2022/02/24 00:52:20;;;;;;;5.20;3.10;;;;;;;;;;5012295;28;20418;-45
2022/02/24 00:54:48;;;;;;;5.63;2.97;;;;;;;;;;5012355;28;20409;-45
2022/02/24 00:57:14;;;;;;;9.33;3.60;;;;;;;;;;5012125;28;20828;-44
2022/02/24 00:59:40;;;;;;;5.70;3.03;;;;;;;;;;5011924;28;20404;-45
2022/02/24 01:02:06;;;;;;;6.10;2.77;;;;;;;;;;5012967;28;20406;-44
2022/02/24 01:04:32;;;;;;;5.33;2.70;;;;;;;;;;5011962;28;20884;-45
2022/02/24 01:06:58;;;;;;;4.97;3.43;;;;;;;;;;5012382;28;20438;-43
2022/02/24 01:09:24;;;;;;;12.53;2.90;;;;;;;;;;5011893;28;20940;-44
2022/02/24 01:11:50;;;;;;;4.80;3.93;;;;;;;;;;5012154;28;20434;-43
2022/02/24 01:14:16;;;;;;;3.93;2.70;;;;;;;;;;5011935;28;20885;-43
2022/02/24 01:16:42;;;;;;;3.03;2.73;;;;;;;;;;5012009;28;20440;-44
2022/02/24 01:19:08;;;;;;;6.70;2.73;;;;;;;;;;5012267;28;20411;-45
2022/02/24 01:21:35;;;;;;;6.93;2.63;;;;;;;;;;5010367;28;20464;-44
2022/02/24 01:24:01;;;;;;;8.80;3.47;;;;;;;;;;5010474;28;20406;-45
2022/02/24 01:26:27;;;;;;;9.00;3.27;;;;;;;;;;5011627;28;20425;-44
2022/02/24 01:28:53;;;;;;;5.60;2.60;;;;;;;;;;5011474;28;20415;-44
2022/02/24 01:31:19;;;;;;;9.10;3.00;;;;;;;;;;5011849;28;20399;-45
2022/02/24 01:33:45;;;;;;;5.23;3.03;;;;;;;;;;5010318;28;20551;-45
2022/02/24 01:36:11;;;;;;;8.50;2.77;;;;;;;;;;5011710;28;20536;-46
2022/02/24 01:38:37;;;;;;;6.00;2.43;;;;;;;;;;5011716;28;20401;-45
2022/02/24 01:41:03;;;;;;;5.00;2.77;;;;;;;;;;5011425;28;20461;-45
2022/02/24 01:43:29;;;;;;;6.90;3.07;;;;;;;;;;5011611;28;20410;-45
2022/02/24 01:45:55;;;;;;;5.70;2.97;;;;;;;;;;5011588;28;20393;-45
2022/02/24 01:48:21;;;;;;;9.03;3.00;;;;;;;;;;5011360;28;20512;-45
2022/02/24 01:50:47;;;;;;;7.27;3.20;;;;;;;;;;5011237;28;20409;-44
2022/02/24 01:53:12;;;;;;;7.33;3.50;;;;;;;;;;5011277;28;20417;-45
2022/02/24 01:55:39;;;;;;;5.23;2.53;;;;;;;;;;5011393;28;20438;-45
2022/02/24 01:58:05;;;;;;;8.13;3.10;;;;;;;;;;5011270;28;20490;-45
2022/02/24 02:00:31;;;;;;;10.77;2.77;;;;;;;;;;5010932;28;20468;-44
2022/02/24 02:02:57;;;;;;;5.67;3.30;;;;;;;;;;5011118;28;20521;-45
2022/02/24 02:05:23;;;;;;;9.70;2.50;;;;;;;;;;5011255;28;20412;-45
2022/02/24 02:07:49;;;;;;;7.03;3.40;;;;;;;;;;5010987;28;20426;-45
2022/02/24 02:10:15;;;;;;;9.97;2.87;;;;;;;;;;5011032;28;20415;-45
2022/02/24 02:12:45;;;;;;;8.47;2.83;;;;;;;;;;5011166;28;20445;-45
2022/02/24 02:15:12;;;;;;;6.83;2.57;;;;;;;;;;5011714;28;20454;-45
2022/02/24 02:17:38;;;;;;;7.67;2.80;;;;;;;;;;5011067;28;20448;-45
2022/02/24 02:20:05;;;;;;;10.00;2.73;;;;;;;;;;5011130;28;20943;-45
2022/02/24 02:22:31;;;;;;;6.37;2.90;;;;;;;;;;5011085;28;20415;-45
2022/02/24 02:24:58;;;;;;;9.73;2.47;;;;;;;;;;5011150;28;20411;-45
2022/02/24 02:27:24;;;;;;;5.10;2.80;;;;;;;;;;5011139;28;20917;-45
2022/02/24 02:29:50;;;;;;;7.37;3.00;;;;;;;;;;5010916;28;20409;-44
2022/02/24 02:32:16;;;;;;;4.43;2.40;;;;;;;;;;5011052;28;20804;-44
2022/02/24 02:34:42;;;;;;;4.97;2.47;;;;;;;;;;5011392;28;20398;-45
2022/02/24 02:37:08;;;;;;;3.70;2.40;;;;;;;;;;5011276;28;20414;-45
2022/02/24 02:39:34;;;;;;;5.00;2.70;;;;;;;;;;5011022;28;20978;-45
2022/02/24 02:42:00;;;;;;;2.80;2.53;;;;;;;;;;5010895;28;20532;-45
2022/02/24 02:44:26;;;;;;;5.47;2.97;;;;;;;;;;5012458;28;20413;-45
2022/02/24 02:46:52;;;;;;;5.80;2.50;;;;;;;;;;5014751;28;20480;-45
2022/02/24 02:49:18;;;;;;;7.07;3.03;;;;;;;;;;5014572;28;20406;-45
2022/02/24 02:51:44;;;;;;;4.87;3.00;;;;;;;;;;5014645;28;20763;-45
2022/02/24 02:54:10;;;;;;;5.47;2.73;;;;;;;;;;5014750;28;20413;-44
2022/02/24 02:56:36;;;;;;;3.17;2.47;;;;;;;;;;5014369;28;20457;-45
2022/02/24 02:59:09;;;;;;;5.77;2.53;;;;;;;;;;5013828;28;20417;-45
2022/02/24 03:01:35;;;;;;;10.00;3.87;;;;;;;;;;5014394;28;20462;-45
2022/02/24 03:04:01;;;;;;;9.87;4.07;;;;;;;;;;5014450;28;20401;-45
2022/02/24 03:06:27;;;;;;;9.13;4.40;;;;;;;;;;5014480;28;20601;-45
2022/02/24 03:08:53;;;;;;;6.77;2.90;;;;;;;;;;5014209;28;20501;-45
2022/02/24 03:11:19;;;;;;;4.23;2.80;;;;;;;;;;5014362;28;20405;-45
2022/02/24 03:13:45;;;;;;;8.43;2.60;;;;;;;;;;5014124;28;20415;-45
2022/02/24 03:16:11;;;;;;;5.50;2.30;;;;;;;;;;5014247;28;20409;-45
2022/02/24 03:18:37;;;;;;;7.33;2.90;;;;;;;;;;5014181;28;20486;-45
2022/02/24 03:21:03;;;;;;;7.13;2.63;;;;;;;;;;5013978;28;20448;-45
2022/02/24 03:23:29;;;;;;;7.23;3.37;;;;;;;;;;5014163;28;20398;-45
2022/02/24 03:25:54;;;;;;;10.07;3.13;;;;;;;;;;5014125;28;20406;-45
2022/02/24 03:28:20;;;;;;;6.97;3.10;;;;;;;;;;5013949;28;20436;-45
2022/02/24 03:30:46;;;;;;;10.17;3.30;;;;;;;;;;5013791;28;20397;-45
2022/02/24 03:33:12;;;;;;;8.77;2.70;;;;;;;;;;5014133;28;20403;-45
2022/02/24 03:35:38;;;;;;;8.40;3.43;;;;;;;;;;5013930;28;20406;-45
2022/02/24 03:38:04;;;;;;;6.20;3.10;;;;;;;;;;5013971;28;20429;-45
2022/02/24 03:40:30;;;;;;;6.10;2.77;;;;;;;;;;5013810;28;20507;-45
2022/02/24 03:42:56;;;;;;;4.97;2.83;;;;;;;;;;5013895;28;20756;-45
2022/02/24 03:45:22;;;;;;;5.47;2.83;;;;;;;;;;5014095;28;20532;-45
2022/02/24 03:47:48;;;;;;;6.27;3.10;;;;;;;;;;5013714;28;20453;-45
2022/02/24 03:50:16;;;;;;;6.30;3.10;;;;;;;;;;5013558;28;20412;-45
2022/02/24 03:52:42;;;;;;;5.80;3.07;;;;;;;;;;5013045;28;20902;-45
2022/02/24 03:55:09;;;;;;;7.60;3.90;;;;;;;;;;5012700;28;20411;-45
2022/02/24 03:57:35;;;;;;;4.20;2.57;;;;;;;;;;5012696;28;20973;-45
2022/02/24 04:00:03;;;;;;;6.93;3.70;;;;;;;;;;5013354;28;20418;-45
2022/02/24 04:02:29;;;;;;;7.93;2.60;;;;;;;;;;5013403;28;20398;-45
2022/02/24 04:04:54;;;;;;;4.93;3.13;;;;;;;;;;5013346;28;20448;-44
2022/02/24 04:07:20;;;;;;;6.63;2.70;;;;;;;;;;5013681;28;20744;-45
2022/02/24 04:09:46;;;;;;;7.77;3.40;;;;;;;;;;5012916;28;20399;-45
2022/02/24 04:12:15;;;;;;;27.47;3.80;;;;;;;;;;5013196;28;20402;-45
2022/02/24 04:14:42;;;;;;;8.37;3.60;;;;;;;;;;5013184;28;20485;-45
2022/02/24 04:17:09;;;;;;;3.60;3.17;;;;;;;;;;5013112;28;20420;-45
2022/02/24 04:19:35;;;;;;;8.60;3.37;;;;;;;;;;5012911;28;20536;-45
2022/02/24 04:22:01;;;;;;;11.93;2.60;;;;;;;;;;5012968;28;20543;-45
2022/02/24 04:24:27;;;;;;;6.43;2.50;;;;;;;;;;5012863;28;20831;-45
2022/02/24 04:26:53;;;;;;;8.30;3.27;;;;;;;;;;5012840;28;20431;-45
2022/02/24 04:29:19;;;;;;;6.20;2.77;;;;;;;;;;5012703;28;20405;-45
2022/02/24 04:31:44;;;;;;;7.73;2.80;;;;;;;;;;5012864;28;20448;-45
2022/02/24 04:34:11;;;;;;;4.23;3.33;;;;;;;;;;5012947;28;20913;-45
2022/02/24 04:36:36;;;;;;;8.63;2.70;;;;;;;;;;5012690;28;20430;-45
2022/02/24 04:39:03;;;;;;;5.90;2.70;;;;;;;;;;5012403;28;20422;-45
2022/02/24 04:41:29;;;;;;;6.13;2.77;;;;;;;;;;5012930;28;20452;-45
2022/02/24 04:43:55;;;;;;;5.30;3.60;;;;;;;;;;5012633;28;20399;-45
2022/02/24 04:46:21;;;;;;;6.30;3.17;;;;;;;;;;5012669;28;20442;-45
2022/02/24 04:48:47;;;;;;;5.37;3.27;;;;;;;;;;5012705;28;20416;-45
2022/02/24 04:51:12;;;;;;;6.60;3.23;;;;;;;;;;5012586;28;20410;-45
2022/02/24 04:53:38;;;;;;;7.27;2.87;;;;;;;;;;5012339;28;20836;-45
2022/02/24 04:56:06;;;;;;;15.33;3.10;;;;;;;;;;5012448;28;20783;-45
2022/02/24 04:58:32;;;;;;;7.87;3.53;;;;;;;;;;5012461;28;20406;-45
2022/02/24 05:00:58;;;;;;;7.30;2.50;;;;;;;;;;5012046;28;20834;-45
2022/02/24 05:03:25;;;;;;;4.87;2.57;;;;;;;;;;5012528;28;20406;-45
2022/02/24 05:05:51;;;;;;;5.37;3.13;;;;;;;;;;5012484;28;20892;-45
2022/02/24 05:08:16;;;;;;;7.93;2.90;;;;;;;;;;5011839;28;20538;-45
2022/02/24 05:10:42;;;;;;;8.70;3.00;;;;;;;;;;5012006;28;20458;-45
2022/02/24 05:13:09;;;;;;;5.87;2.90;;;;;;;;;;5012079;28;20414;-45
2022/02/24 05:15:35;;;;;;;6.40;2.97;;;;;;;;;;5011982;28;20412;-45
2022/02/24 05:18:01;;;;;;;5.23;2.70;;;;;;;;;;5011990;28;20430;-44
2022/02/24 05:20:27;;;;;;;5.83;2.83;;;;;;;;;;5011636;28;20640;-45
2022/02/24 05:22:53;;;;;;;9.37;3.73;;;;;;;;;;5011819;28;20893;-45
2022/02/24 05:25:19;;;;;;;5.80;3.03;;;;;;;;;;5012158;28;20403;-45
2022/02/24 05:27:46;;;;;;;8.40;2.57;;;;;;;;;;5011694;28;20424;-45
2022/02/24 05:30:13;;;;;;;8.60;2.70;;;;;;;;;;5011632;28;20953;-45
2022/02/24 05:32:39;;;;;;;13.10;3.50;;;;;;;;;;5011745;28;20432;-45
2022/02/24 05:35:05;;;;;;;4.50;2.60;;;;;;;;;;5011749;28;20962;-45
2022/02/24 05:37:32;;;;;;;9.10;3.20;;;;;;;;;;5011471;28;20451;-44
2022/02/24 05:40:29;;;;;;;9.50;2.90;;;;;;;;;;5011308;28;20403;-45
2022/02/24 05:42:55;;;;;;;5.40;2.73;;;;;;;;;;5011592;28;20740;-45
2022/02/24 05:45:21;;;;;;;2.90;2.60;;;;;;;;;;5011980;28;20444;-45
2022/02/24 05:47:47;;;;;;;7.47;2.70;;;;;;;;;;5011490;28;20941;-45
2022/02/24 05:50:13;;;;;;;2.63;2.33;;;;;;;;;;5011361;28;20489;-45
2022/02/24 05:52:39;;;;;;;5.37;2.73;;;;;;;;;;5011407;28;20917;-45
2022/02/24 05:55:05;;;;;;;12.73;4.83;;;;;;;;;;5011479;28;20402;-44
2022/02/24 05:57:31;;;;;;;7.53;3.30;;;;;;;;;;5011527;28;20445;-45
2022/02/24 05:59:57;;;;;;;9.63;2.80;;;;;;;;;;5011409;28;20433;-45
2022/02/24 06:02:23;;;;;;;6.97;2.87;;;;;;;;;;5011457;28;20422;-45
2022/02/24 06:04:49;;;;;;;8.40;3.20;;;;;;;;;;5011501;28;20409;-45
2022/02/24 06:07:15;;;;;;;7.10;2.90;;;;;;;;;;5011723;28;20922;-45
2022/02/24 06:09:41;;;;;;;2.90;2.60;;;;;;;;;;5011066;28;20398;-45
2022/02/24 06:12:07;;;;;;;10.47;2.77;;;;;;;;;;5011236;28;20491;-45
2022/02/24 06:14:33;;;;;;;6.33;2.43;;;;;;;;;;5011396;28;20393;-45
2022/02/24 06:16:59;;;;;;;9.00;2.60;;;;;;;;;;5011111;28;20947;-45
2022/02/24 06:19:25;;;;;;;5.33;2.57;;;;;;;;;;5014483;28;20488;-46
2022/02/24 06:21:52;;;;;;;7.93;2.93;;;;;;;;;;5017528;28;20593;-44
2022/02/24 06:24:18;;;;;;;8.60;3.50;;;;;;;;;;5017725;28;20982;-45
2022/02/24 06:26:44;;;;;;;5.50;3.20;;;;;;;;;;5017534;28;20424;-45
2022/02/24 06:29:10;;;;;;;5.20;3.03;;;;;;;;;;5017404;28;20887;-45
2022/02/24 06:31:37;;;;;;;9.53;3.10;;;;;;;;;;5017614;28;20427;-45
2022/02/24 06:34:03;;;;;;;9.50;2.80;;;;;;;;;;5017512;28;20406;-44
2022/02/24 06:36:30;;;;;;;7.43;2.50;;;;;;;;;;5017356;28;20456;-45
2022/02/24 06:38:57;;;;;;;6.27;2.60;;;;;;;;;;5017323;28;20409;-45
2022/02/24 06:41:23;;;;;;;7.43;3.13;;;;;;;;;;5017450;28;20483;-45
2022/02/24 06:43:49;;;;;;;5.20;3.00;;;;;;;;;;5017440;28;20759;-44
2022/02/24 06:46:18;;;;;;;8.70;2.70;;;;;;;;;;5017417;28;20402;-44
2022/02/24 06:48:44;;;;;;;6.27;2.53;;;;;;;;;;5017544;28;20410;-45
2022/02/24 06:51:10;;;;;;;5.77;2.80;;;;;;;;;;5017086;28;20406;-45
2022/02/24 06:53:36;;;;;;;7.27;2.60;;;;;;;;;;5017370;28;20462;-44
2022/02/24 06:56:02;;;;;;;4.60;3.20;;;;;;;;;;5017283;28;20412;-45
2022/02/24 06:58:28;;;;;;;9.13;3.13;;;;;;;;;;5017557;28;20496;-45
2022/02/24 07:00:54;;;;;;;3.70;2.70;;;;;;;;;;5017804;28;20543;-44
2022/02/24 07:03:20;;;;;;;6.10;2.40;;;;;;;;;;5017389;28;20717;-44
2022/02/24 07:05:46;;;;;;;10.43;2.13;;;;;;;;;;5017349;28;20416;-44
2022/02/24 07:08:12;;;;;;;5.00;2.30;;;;;;;;;;5017339;28;20430;-44
2022/02/24 07:10:38;;;;;;;7.97;2.70;;;;;;;;;;5017152;28;20815;-44
2022/02/24 07:13:04;;;;;;;4.40;2.30;;;;;;;;;;5017224;28;20403;-44
2022/02/24 07:15:30;;;;;;;2.40;2.20;;;;;;;;;;5017447;28;20417;-44
2022/02/24 07:17:56;;;;;;;9.77;3.27;;;;;;;;;;5016728;28;20436;-44
2022/02/24 07:20:22;;;;;;;4.33;2.40;;;;;;;;;;5016866;28;20552;-44
2022/02/24 07:22:48;;;;;;;2.90;2.00;;;;;;;;;;5016663;28;20448;-44
2022/02/24 07:25:15;;;;;;;7.00;2.70;;;;;;;;;;5017127;28;20413;-44
2022/02/24 07:27:41;;;;;;;6.50;2.43;;;;;;;;;;5017246;28;20426;-44
2022/02/24 07:30:07;;;;;;;5.10;2.67;;;;;;;;;;5016025;28;20463;-44
2022/02/24 07:32:34;;;;;;;7.23;3.40;;;;;;;;;;5013841;28;20411;-44
2022/02/24 07:35:01;;;;;;;6.27;2.70;;;;;;;;;;5013923;28;20414;-44
2022/02/24 07:37:27;;;;;;;5.73;2.93;;;;;;;;;;5015306;28;20438;-44
2022/02/24 07:39:53;;;;;;;6.60;2.47;;;;;;;;;;5012895;28;20418;-44
2022/02/24 07:42:19;;;;;;;5.43;2.73;;;;;;;;;;5013124;28;20422;-44
2022/02/24 07:44:45;;;;;;;5.43;2.83;;;;;;;;;;5012219;28;20891;-44
2022/02/24 07:47:11;;;;;;;3.10;2.07;;;;;;;;;;5013538;28;20560;-44
2022/02/24 07:49:37;;;;;;;3.70;1.90;;;;;;;;;;5013460;28;20898;-44
2022/02/24 07:52:03;;;;;;;3.50;2.60;;;;;;;;;;5013557;28;20420;-44
2022/02/24 07:54:29;;;;;;;5.83;2.70;;;;;;;;;;5013663;28;20411;-44
2022/02/24 07:56:55;;;;;;;4.90;2.10;;;;;;;;;;5013459;28;20445;-44
2022/02/24 07:59:21;;;;;;;9.17;3.03;;;;;;;;;;5013475;28;20616;-44
2022/02/24 08:01:47;;;;;;;8.60;2.40;;;;;;;;;;5013658;28;20507;-44
2022/02/24 08:04:13;;;;;;;4.37;2.00;;;;;;;;;;5013713;28;20461;-44
2022/02/24 08:06:39;;;;;;;4.63;2.03;;;;;;;;;;5013319;28;20836;-44
2022/02/24 08:09:08;;;;;;;2.70;1.90;;;;;;;;;;5013248;28;20407;-44
2022/02/24 08:11:35;;;;;;;5.83;2.73;;;;;;;;;;5013378;28;20409;-44
2022/02/24 08:14:01;;;;;;;4.60;1.70;;;;;;;;;;5013244;28;20409;-44
2022/02/24 08:16:27;;;;;;;6.07;2.73;;;;;;;;;;5013133;28;20939;-44
2022/02/24 08:18:55;;;;;;;6.30;2.00;;;;;;;;;;5012982;28;20490;-44
2022/02/24 08:21:22;;;;;;;6.20;2.10;;;;;;;;;;5013139;28;20450;-44
2022/02/24 08:23:48;;;;;;;3.77;2.47;;;;;;;;;;5012988;28;20431;-44
2022/02/24 08:26:14;;;;;;;6.17;3.03;;;;;;;;;;5013177;28;20450;-44
2022/02/24 08:28:40;;;;;;;3.90;2.80;;;;;;;;;;5012975;28;20410;-44
2022/02/24 08:31:06;;;;;;;8.23;2.57;;;;;;;;;;5012891;28;20420;-44
2022/02/24 08:33:33;;;;;;;3.60;2.30;;;;;;;;;;5011706;28;20905;-44
2022/02/24 08:35:59;;;;;;;5.63;2.30;;;;;;;;;;5012471;28;20467;-44
2022/02/24 08:38:25;;;;;;;5.93;2.57;;;;;;;;;;5012606;28;20426;-44
2022/02/24 08:40:51;;;;;;;5.87;2.70;;;;;;;;;;5012304;28;20453;-44
2022/02/24 08:43:18;;;;;;;3.40;2.30;;;;;;;;;;5012126;28;20786;-44
2022/02/24 08:45:46;;;;;;;4.73;2.87;;;;;;;;;;5012611;28;20879;-44
2022/02/24 08:48:12;;;;;;;8.87;2.87;;;;;;;;;;5012363;28;20933;-44
2022/02/24 08:50:39;;;;;;;6.13;2.50;;;;;;;;;;5012347;28;20407;-44
2022/02/24 08:53:06;;;;;;;4.73;2.43;;;;;;;;;;5012307;28;20410;-44
2022/02/24 08:55:32;;;;;;;3.93;2.50;;;;;;;;;;5012451;28;20493;-44
2022/02/24 08:57:58;;;;;;;3.77;2.00;;;;;;;;;;5012312;28;20443;-44
2022/02/24 09:00:24;;;;;;;5.93;2.40;;;;;;;;;;5012403;28;20461;-44
2022/02/24 09:02:50;;;;;;;3.67;2.67;;;;;;;;;;5012143;28;20398;-45
2022/02/24 09:05:16;;;;;;;3.53;2.10;;;;;;;;;;5012246;28;20465;-44
2022/02/24 09:07:42;;;;;;;6.87;2.50;;;;;;;;;;5012251;28;20411;-44
2022/02/24 09:10:10;;;;;;;5.50;2.80;;;;;;;;;;5012030;28;20950;-44
2022/02/24 09:12:36;;;;;;;2.50;1.90;;;;;;;;;;5012233;28;20453;-44
2022/02/24 09:15:02;;;;;;;4.37;1.80;;;;;;;;;;5012168;28;20438;-44
2022/02/24 09:17:28;;;;;;;3.50;1.87;;;;;;;;;;5012072;28;20426;-44
2022/02/24 09:19:55;;;;;;;4.33;2.00;;;;;;;;;;5011914;28;20402;-44
2022/02/24 09:22:21;;;;;;;4.57;2.00;;;;;;;;;;5011767;28;20560;-44
2022/02/24 09:24:47;;;;;;;6.67;2.57;;;;;;;;;;5012258;28;20409;-44
2022/02/24 09:27:13;;;;;;;3.10;2.40;;;;;;;;;;5011757;28;20425;-44
2022/02/24 09:29:39;;;;;;;7.17;2.60;;;;;;;;;;5011550;28;20777;-44
2022/02/24 09:32:05;;;;;;;4.33;2.40;;;;;;;;;;5011752;28;20411;-44
2022/02/24 09:34:31;;;;;;;5.13;3.00;;;;;;;;;;5011720;28;20406;-44
2022/02/24 09:36:57;;;;;;;8.03;2.27;;;;;;;;;;5011507;28;20430;-44
2022/02/24 09:39:23;;;;;;;6.53;1.90;;;;;;;;;;5011325;28;20414;-44
2022/02/24 09:41:50;;;;;;;5.10;2.07;;;;;;;;;;5011483;28;20458;-44
2022/02/24 09:44:16;;;;;;;4.10;2.03;;;;;;;;;;5011843;28;20431;-44
2022/02/24 09:46:42;;;;;;;2.83;2.00;;;;;;;;;;5010503;28;20478;-44
2022/02/24 09:49:08;;;;;;;5.10;2.50;;;;;;;;;;5011235;28;20399;-44
2022/02/24 09:51:34;;;;;;;3.70;1.60;;;;;;;;;;5011755;28;20399;-44
2022/02/24 09:54:01;;;;;;;4.73;2.20;;;;;;;;;;5010458;28;20502;-44
2022/02/24 09:56:29;;;;;;;5.97;1.87;;;;;;;;;;5011218;28;20962;-44
2022/02/24 09:58:56;;;;;;;5.77;2.30;;;;;;;;;;5011012;28;20439;-44
2022/02/24 10:01:22;;;;;;;7.90;2.30;;;;;;;;;;5011218;28;20470;-44
2022/02/24 10:03:56;;;;;;;6.20;2.60;;;;;;;;;;5011239;28;20442;-44
2022/02/24 10:06:32;;;;;;;7.10;2.63;;;;;;;;;;5011279;28;20419;-44
2022/02/24 10:08:58;;;;;;;5.40;2.70;;;;;;;;;;5011261;28;20398;-44
2022/02/24 10:11:27;;;;;;;5.47;2.60;;;;;;;;;;5011545;28;20407;-44
2022/02/24 10:14:01;;;;;;;5.93;3.37;;;;;;;;;;5011452;28;20469;-44
2022/02/24 10:16:27;;;;;;;7.10;3.50;;;;;;;;;;5011163;28;20506;-44
2022/02/24 10:18:54;;;;;;;8.80;3.73;;;;;;;;;;5010875;28;20490;-44
2022/02/24 10:21:23;;;;;;;11.80;3.30;;;;;;;;;;5011070;28;20450;-44
2022/02/24 10:23:50;;;;;;;9.40;4.00;;;;;;;;;;5011108;28;20403;-44
2022/02/24 10:26:17;;;;;;;5.23;3.60;;;;;;;;;;5010986;28;20418;-44
2022/02/24 10:28:51;;;;;;;6.83;3.00;;;;;;;;;;5010838;28;20406;-44
2022/02/24 10:31:22;;;;;;;7.60;3.37;;;;;;;;;;5010716;28;20966;-44
2022/02/24 10:33:49;;;;;;;6.30;3.30;;;;;;;;;;5010519;28;20464;-45
2022/02/24 10:36:18;;;;;;;3.60;3.20;;;;;;;;;;5010868;28;20406;-44
2022/02/24 10:38:46;;;;;;;3.77;3.00;;;;;;;;;;5010193;28;20501;-44
2022/02/24 10:41:12;;;;;;;7.97;3.17;;;;;;;;;;5009642;28;20450;-44
2022/02/24 10:43:42;;;;;;;10.90;3.80;;;;;;;;;;5009488;28;20403;-45
2022/02/24 10:46:08;;;;;;;4.83;2.60;;;;;;;;;;5010291;28;20407;-44
2022/02/24 10:48:51;;;;;;;3.33;2.50;;;;;;;;;;5010891;28;20412;-44
2022/02/24 10:51:20;;;;;;;3.03;2.23;;;;;;;;;;5010648;28;20472;-44
2022/02/24 10:53:47;;;;;;;4.07;2.17;;;;;;;;;;5011045;28;20763;-44
2022/02/24 10:56:14;;;;;;;4.40;2.13;;;;;;;;;;5008968;28;20500;-44
2022/02/24 10:58:41;;;;;;;4.47;2.73;;;;;;;;;;5010887;28;20414;-44
2022/02/24 11:01:10;;;;;;;3.77;2.43;;;;;;;;;;5010321;28;20461;-45
2022/02/24 11:03:37;;;;;;;6.83;3.03;;;;;;;;;;5010389;28;20775;-45
2022/02/24 11:06:05;;;;;;;4.53;2.80;;;;;;;;;;5013316;28;20485;-45
2022/02/24 11:08:31;;;;;;;4.60;2.80;;;;;;;;;;5014536;28;20403;-45
2022/02/24 11:10:57;;;;;;;6.80;2.43;;;;;;;;;;5014358;28;20775;-45
2022/02/24 11:13:24;;;;;;;4.03;2.73;;;;;;;;;;5014308;28;20907;-44
2022/02/24 11:15:53;;;;;;;4.07;2.50;;;;;;;;;;5014419;28;20439;-45
2022/02/24 11:18:19;;;;;;;6.60;2.63;;;;;;;;;;5014744;28;20438;-45
2022/02/24 11:20:45;;;;;;;7.03;2.67;;;;;;;;;;5014071;28;20798;-45
2022/02/24 11:23:13;;;;;;;5.93;2.70;;;;;;;;;;5014095;28;20399;-45
2022/02/24 11:25:47;;;;;;;3.83;2.60;;;;;;;;;;5014109;28;20396;-44
2022/02/24 11:28:15;;;;;;;4.13;2.50;;;;;;;;;;5014052;28;20761;-44
2022/02/24 11:30:46;;;;;;;8.63;3.20;;;;;;;;;;5014030;28;20453;-45
2022/02/24 11:33:14;;;;;;;7.93;3.60;;;;;;;;;;5013943;28;20494;-44
2022/02/24 11:35:40;;;;;;;3.90;2.90;;;;;;;;;;5013853;28;20544;-44
2022/02/24 11:38:06;;;;;;;4.37;3.60;;;;;;;;;;5014018;28;20501;-45
2022/02/24 11:40:36;;;;;;;7.50;3.90;;;;;;;;;;5013545;28;20865;-44
2022/02/24 11:43:10;;;;;;;4.90;4.30;;;;;;;;;;5013767;28;20558;-45
2022/02/24 11:45:37;;;;;;;5.60;3.03;;;;;;;;;;5013743;28;20399;-44
2022/02/24 11:48:12;;;;;;;4.20;2.60;;;;;;;;;;5013526;28;20419;-45
2022/02/24 11:50:39;;;;;;;4.27;3.50;;;;;;;;;;5013082;28;20776;-45
2022/02/24 11:53:07;;;;;;;6.63;2.80;;;;;;;;;;5013500;28;20786;-44
2022/02/24 11:55:43;;;;;;;6.40;3.00;;;;;;;;;;5013331;28;20407;-44
2022/02/24 11:58:28;;;;;;;5.13;3.57;;;;;;;;;;5013461;28;20821;-44
2022/02/24 12:01:12;;;;;;;3.27;2.53;;;;;;;;;;5013399;28;20465;-45
2022/02/24 12:03:47;;;;;;;4.90;3.63;;;;;;;;;;5013435;28;20403;-45
2022/02/24 12:06:14;;;;;;;4.83;2.67;;;;;;;;;;5013558;28;20456;-45
2022/02/24 12:08:58;;;;;;;3.43;2.43;;;;;;;;;;5013820;28;21014;-45
2022/02/24 12:11:30;;;;;;;8.47;2.90;;;;;;;;;;5013770;28;20456;-45
2022/02/24 12:13:56;;;;;;;8.70;2.70;;;;;;;;;;5013401;28;20450;-45
2022/02/24 12:16:24;;;;;;;4.27;2.90;;;;;;;;;;5012390;28;20403;-44
2022/02/24 12:18:50;;;;;;;7.00;2.70;;;;;;;;;;5013048;28;20414;-44
2022/02/24 12:21:36;;;;;;;4.13;2.37;;;;;;;;;;5012993;28;20454;-44
2022/02/24 12:24:06;;;;;;;2.30;2.10;;;;;;;;;;5013057;28;20406;-45
2022/02/24 12:26:39;;;;;;;4.60;2.87;;;;;;;;;;5013013;28;20435;-44
2022/02/24 12:29:25;;;;;;;5.13;2.77;;;;;;;;;;5013226;28;20432;-44
2022/02/24 12:31:55;;;;;;;10.60;2.87;;;;;;;;;;5013330;28;20397;-45
2022/02/24 12:34:21;;;;;;;7.87;2.80;;;;;;;;;;5011823;28;20453;-45
2022/02/24 12:36:47;;;;;;;6.73;2.80;;;;;;;;;;5013248;28;20966;-45
2022/02/24 12:39:13;;;;;;;7.60;2.60;;;;;;;;;;5013051;28;20414;-45
2022/02/24 12:41:39;;;;;;;6.03;3.30;;;;;;;;;;5012842;28;20453;-45
2022/02/24 12:44:24;;;;;;;8.63;3.10;;;;;;;;;;5012787;28;20409;-45
2022/02/24 12:46:50;;;;;;;6.50;2.80;;;;;;;;;;5012688;28;20456;-45
2022/02/24 12:49:16;;;;;;;6.20;3.43;;;;;;;;;;5012353;28;20410;-45
2022/02/24 12:51:42;;;;;;;9.50;3.27;;;;;;;;;;5012428;28;20407;-45
2022/02/24 12:54:16;;;;;;;4.47;2.90;;;;;;;;;;5012488;28;20413;-45
2022/02/24 12:56:42;;;;;;;2.87;2.53;;;;;;;;;;5012409;28;20950;-45
2022/02/24 12:59:09;;;;;;;6.70;2.80;;;;;;;;;;5012075;28;20374;-45
2022/02/24 13:01:35;;;;;;;8.30;2.83;;;;;;;;;;5013120;28;20952;-45
2022/02/24 13:04:01;;;;;;;5.83;3.27;;;;;;;;;;5012288;28;20494;-45
2022/02/24 13:06:33;;;;;;;3.97;3.03;;;;;;;;;;5012020;28;20529;-47
2022/02/24 13:11:44;;;;;;;7.53;3.07;;;;;;;;;;5012455;28;20398;-47
2022/02/24 13:14:16;;;;;;;6.70;2.80;;;;;;;;;;5012297;28;20397;-44
2022/02/24 13:16:46;;;;;;;3.03;2.73;;;;;;;;;;5012707;28;20429;-46
2022/02/24 13:19:17;;;;;;;2.70;2.50;;;;;;;;;;5011950;28;20783;-44
2022/02/24 13:21:43;;;;;;;3.53;2.63;;;;;;;;;;5011827;28;20447;-44
2022/02/24 13:24:10;;;;;;;3.93;3.40;;;;;;;;;;5011713;28;20942;-44
2022/02/24 13:26:43;;;;;;;6.37;2.60;;;;;;;;;;5011697;28;20430;-44
2022/02/24 13:29:10;;;;;;;7.80;2.30;;;;;;;;;;5011342;28;20398;-44
2022/02/24 13:31:36;;;;;;;5.67;1.83;;;;;;;;;;5011595;28;20586;-44
2022/02/24 13:34:12;;;;;;;5.27;2.47;;;;;;;;;;5011502;28;20459;-44
2022/02/24 13:36:38;;;;;;;3.27;2.40;;;;;;;;;;5011530;28;20423;-46
2022/02/24 13:39:04;;;;;;;2.83;2.10;;;;;;;;;;5011666;28;20415;-44
2022/02/24 13:41:30;;;;;;;5.10;2.00;;;;;;;;;;5011612;28;20820;-44
2022/02/24 13:43:58;;;;;;;2.80;1.30;;;;;;;;;;5011147;28;20408;-44
2022/02/24 13:46:38;;;;;;;2.50;1.60;;;;;;;;;;5010677;28;20796;-45
2022/02/24 13:49:07;;;;;;;2.90;1.47;;;;;;;;;;5010785;28;20503;-44
2022/02/24 13:51:34;;;;;;;2.47;2.00;;;;;;;;;;5011438;28;20408;-44
2022/02/24 13:54:00;;;;;;;6.50;1.83;;;;;;;;;;5011361;28;20408;-44
2022/02/24 13:56:26;;;;;;;2.30;1.70;;;;;;;;;;5010850;28;20524;-45
2022/02/24 13:58:58;;;;;;;8.63;1.53;;;;;;;;;;5011009;28;20414;-48
2022/02/24 14:01:24;;;;;;;2.03;1.47;;;;;;;;;;5011371;28;20466;-44
2022/02/24 14:03:51;;;;;;;4.83;2.00;;;;;;;;;;5011393;28;20407;-44
2022/02/24 14:06:17;;;;;;;2.10;1.67;;;;;;;;;;5011331;28;20410;-45
2022/02/24 14:08:50;;;;;;;2.03;1.87;;;;;;;;;;5011457;28;20481;-45
2022/02/24 14:11:18;;;;;;;6.80;1.50;;;;;;;;;;5008840;28;20899;-45
2022/02/24 14:13:44;;;;;;;2.70;1.73;;;;;;;;;;5011158;28;20426;-47
2022/02/24 14:16:10;;;;;;;2.43;1.70;;;;;;;;;;5010740;28;20803;-45
2022/02/24 14:18:38;;;;;;;2.23;1.40;;;;;;;;;;5012010;28;20404;-47
2022/02/24 14:21:04;;;;;;;2.97;1.67;;;;;;;;;;5010579;28;20982;-45
2022/02/24 14:23:30;;;;;;;1.87;1.67;;;;;;;;;;5009627;28;20414;-44
2022/02/24 14:25:56;;;;;;;5.80;1.80;;;;;;;;;;5011098;28;20915;-46
2022/02/24 14:28:22;;;;;;;5.80;1.53;;;;;;;;;;5011130;28;20424;-44
2022/02/24 14:30:48;;;;;;;2.63;1.60;;;;;;;;;;5010904;28;20410;-44
2022/02/24 14:33:14;;;;;;;4.50;1.67;;;;;;;;;;5011356;28;20413;-44
2022/02/24 14:35:40;;;;;;;5.13;1.63;;;;;;;;;;5010952;28;20408;-44
2022/02/24 14:38:06;;;;;;;1.83;1.40;;;;;;;;;;5010763;28;20423;-46
2022/02/24 14:40:32;;;;;;;3.43;1.40;;;;;;;;;;5012298;28;20825;-44
2022/02/24 14:43:02;;;;;;;1.90;1.37;;;;;;;;;;5015019;28;20408;-46
2022/02/24 14:45:28;;;;;;;3.20;2.07;;;;;;;;;;5015168;28;20828;-44